sensor_id;sensor_type;location;lat;lon;timestamp;P1;durP1;ratioP1;P2;durP2;ratioP2
1725;SDS011;41776;48.260;8.928;2022-08-05T00:02:10;3.05;;;2.45;;
1725;SDS011;41776;48.260;8.928;2022-08-05T00:04:38;3.97;;;2.45;;
1725;SDS011;41776;48.260;8.928;2022-08-05T00:07:04;3.85;;;2.20;;
1725;SDS011;41776;48.260;8.928;2022-08-05T00:09:31;3.90;;;2.22;;
1725;SDS011;41776;48.260;8.928;2022-08-05T00:11:58;2.83;;;2.10;;
1725;SDS011;41776;48.260;8.928;2022-08-05T00:14:25;3.55;;;2.30;;
1725;SDS011;41776;48.260;8.928;2022-08-05T00:16:51;4.18;;;2.30;;
1725;SDS011;41776;48.260;8.928;2022-08-05T00:19:18;4.70;;;2.42;;
1725;SDS011;41776;48.260;8.928;2022-08-05T00:21:44;4.35;;;2.00;;
1725;SDS011;41776;48.260;8.928;2022-08-05T00:24:11;9.00;;;2.13;;
1725;SDS011;41776;48.260;8.928;2022-08-05T00:26:37;6.68;;;2.05;;
1725;SDS011;41776;48.260;8.928;2022-08-05T00:29:05;3.05;;;2.30;;
1725;SDS011;41776;48.260;8.928;2022-08-05T00:31:32;5.82;;;2.20;;
1725;SDS011;41776;48.260;8.928;2022-08-05T00:33:58;3.92;;;2.10;;
1725;SDS011;41776;48.260;8.928;2022-08-05T00:36:24;5.70;;;2.25;;
1725;SDS011;41776;48.260;8.928;2022-08-05T00:38:51;4.40;;;2.10;;
1725;SDS011;41776;48.260;8.928;2022-08-05T00:41:25;4.30;;;2.28;;
1725;SDS011;41776;48.260;8.928;2022-08-05T00:43:53;3.78;;;2.30;;
1725;SDS011;41776;48.260;8.928;2022-08-05T00:46:20;7.05;;;2.58;;
1725;SDS011;41776;48.260;8.928;2022-08-05T00:48:47;5.05;;;2.30;;
1725;SDS011;41776;48.260;8.928;2022-08-05T00:51:14;5.80;;;2.70;;
1725;SDS011;41776;48.260;8.928;2022-08-05T00:53:40;3.13;;;2.33;;
1725;SDS011;41776;48.260;8.928;2022-08-05T00:56:07;8.30;;;2.63;;
1725;SDS011;41776;48.260;8.928;2022-08-05T00:58:33;3.00;;;2.50;;
1725;SDS011;41776;48.260;8.928;2022-08-05T01:01:00;9.25;;;2.65;;
1725;SDS011;41776;48.260;8.928;2022-08-05T01:03:27;5.35;;;2.38;;
1725;SDS011;41776;48.260;8.928;2022-08-05T01:05:54;2.53;;;2.05;;
1725;SDS011;41776;48.260;8.928;2022-08-05T01:08:21;4.95;;;2.08;;
1725;SDS011;41776;48.260;8.928;2022-08-05T01:10:50;5.97;;;2.38;;
1725;SDS011;41776;48.260;8.928;2022-08-05T01:13:20;4.05;;;2.20;;
1725;SDS011;41776;48.260;8.928;2022-08-05T01:15:52;6.65;;;2.10;;
1725;SDS011;41776;48.260;8.928;2022-08-05T01:18:24;7.45;;;2.30;;
1725;SDS011;41776;48.260;8.928;2022-08-05T01:21:00;3.55;;;2.25;;
1725;SDS011;41776;48.260;8.928;2022-08-05T01:23:36;3.92;;;2.45;;
1725;SDS011;41776;48.260;8.928;2022-08-05T01:29:03;3.30;;;2.20;;
1725;SDS011;41776;48.260;8.928;2022-08-05T01:31:35;4.03;;;2.58;;
1725;SDS011;41776;48.260;8.928;2022-08-05T01:34:06;3.05;;;2.35;;
1725;SDS011;41776;48.260;8.928;2022-08-05T01:36:37;2.55;;;2.10;;
1725;SDS011;41776;48.260;8.928;2022-08-05T01:39:08;2.97;;;1.88;;
1725;SDS011;41776;48.260;8.928;2022-08-05T01:41:36;2.70;;;1.83;;
1725;SDS011;41776;48.260;8.928;2022-08-05T01:44:04;5.32;;;2.22;;
1725;SDS011;41776;48.260;8.928;2022-08-05T01:46:33;3.88;;;2.13;;
1725;SDS011;41776;48.260;8.928;2022-08-05T01:49:00;2.17;;;1.98;;
1725;SDS011;41776;48.260;8.928;2022-08-05T01:51:29;4.05;;;2.28;;
1725;SDS011;41776;48.260;8.928;2022-08-05T01:53:57;4.63;;;2.40;;
1725;SDS011;41776;48.260;8.928;2022-08-05T01:56:26;5.43;;;1.95;;
1725;SDS011;41776;48.260;8.928;2022-08-05T01:58:55;2.58;;;1.80;;
1725;SDS011;41776;48.260;8.928;2022-08-05T02:01:25;3.75;;;1.90;;
1725;SDS011;41776;48.260;8.928;2022-08-05T02:03:53;3.63;;;2.15;;
1725;SDS011;41776;48.260;8.928;2022-08-05T02:06:22;3.33;;;1.70;;
1725;SDS011;41776;48.260;8.928;2022-08-05T02:08:48;3.50;;;1.77;;
1725;SDS011;41776;48.260;8.928;2022-08-05T02:11:15;4.90;;;2.08;;
1725;SDS011;41776;48.260;8.928;2022-08-05T02:13:43;2.85;;;2.00;;
1725;SDS011;41776;48.260;8.928;2022-08-05T02:16:15;3.90;;;2.30;;
1725;SDS011;41776;48.260;8.928;2022-08-05T02:18:48;5.35;;;2.10;;
1725;SDS011;41776;48.260;8.928;2022-08-05T02:21:18;3.05;;;2.30;;
1725;SDS011;41776;48.260;8.928;2022-08-05T02:23:51;2.08;;;1.85;;
1725;SDS011;41776;48.260;8.928;2022-08-05T02:26:21;2.60;;;2.17;;
1725;SDS011;41776;48.260;8.928;2022-08-05T02:28:50;5.50;;;2.10;;
1725;SDS011;41776;48.260;8.928;2022-08-05T02:31:20;3.55;;;1.90;;
1725;SDS011;41776;48.260;8.928;2022-08-05T02:33:51;2.50;;;1.90;;
1725;SDS011;41776;48.260;8.928;2022-08-05T02:36:22;4.13;;;2.10;;
1725;SDS011;41776;48.260;8.928;2022-08-05T02:38:49;3.58;;;2.13;;
1725;SDS011;41776;48.260;8.928;2022-08-05T02:41:20;3.08;;;1.95;;
1725;SDS011;41776;48.260;8.928;2022-08-05T02:43:47;3.75;;;2.35;;
1725;SDS011;41776;48.260;8.928;2022-08-05T02:46:15;2.80;;;2.30;;
1725;SDS011;41776;48.260;8.928;2022-08-05T02:48:44;7.28;;;2.13;;
1725;SDS011;41776;48.260;8.928;2022-08-05T02:51:14;2.35;;;2.00;;
1725;SDS011;41776;48.260;8.928;2022-08-05T02:53:42;3.03;;;2.17;;
1725;SDS011;41776;48.260;8.928;2022-08-05T02:56:11;5.68;;;2.17;;
1725;SDS011;41776;48.260;8.928;2022-08-05T02:58:39;3.90;;;1.92;;
1725;SDS011;41776;48.260;8.928;2022-08-05T03:01:06;3.30;;;2.17;;
1725;SDS011;41776;48.260;8.928;2022-08-05T03:03:36;5.10;;;2.30;;
1725;SDS011;41776;48.260;8.928;2022-08-05T03:06:05;4.03;;;2.50;;
1725;SDS011;41776;48.260;8.928;2022-08-05T03:08:34;3.60;;;2.17;;
1725;SDS011;41776;48.260;8.928;2022-08-05T03:11:01;2.83;;;1.95;;
1725;SDS011;41776;48.260;8.928;2022-08-05T03:13:27;3.45;;;2.00;;
1725;SDS011;41776;48.260;8.928;2022-08-05T03:15:54;3.20;;;2.20;;
1725;SDS011;41776;48.260;8.928;2022-08-05T03:18:20;3.35;;;2.50;;
1725;SDS011;41776;48.260;8.928;2022-08-05T03:20:47;3.03;;;2.05;;
1725;SDS011;41776;48.260;8.928;2022-08-05T03:23:13;5.43;;;2.13;;
1725;SDS011;41776;48.260;8.928;2022-08-05T03:25:41;4.85;;;2.40;;
1725;SDS011;41776;48.260;8.928;2022-08-05T03:28:07;4.05;;;2.63;;
1725;SDS011;41776;48.260;8.928;2022-08-05T03:30:35;2.47;;;2.28;;
1725;SDS011;41776;48.260;8.928;2022-08-05T03:33:04;3.22;;;2.10;;
1725;SDS011;41776;48.260;8.928;2022-08-05T03:35:31;5.63;;;2.25;;
1725;SDS011;41776;48.260;8.928;2022-08-05T03:37:58;2.75;;;2.00;;
1725;SDS011;41776;48.260;8.928;2022-08-05T03:40:25;5.60;;;2.22;;
1725;SDS011;41776;48.260;8.928;2022-08-05T03:42:53;3.45;;;2.30;;
1725;SDS011;41776;48.260;8.928;2022-08-05T03:45:20;2.80;;;2.08;;
1725;SDS011;41776;48.260;8.928;2022-08-05T03:47:46;6.47;;;2.25;;
1725;SDS011;41776;48.260;8.928;2022-08-05T03:50:13;6.45;;;2.10;;
1725;SDS011;41776;48.260;8.928;2022-08-05T03:52:41;3.05;;;2.45;;
1725;SDS011;41776;48.260;8.928;2022-08-05T03:55:14;4.13;;;2.22;;
1725;SDS011;41776;48.260;8.928;2022-08-05T03:57:45;3.67;;;2.30;;
1725;SDS011;41776;48.260;8.928;2022-08-05T04:00:16;3.22;;;2.40;;
1725;SDS011;41776;48.260;8.928;2022-08-05T04:02:44;2.10;;;1.90;;
1725;SDS011;41776;48.260;8.928;2022-08-05T04:05:14;4.95;;;2.40;;
1725;SDS011;41776;48.260;8.928;2022-08-05T04:07:42;4.43;;;2.20;;
1725;SDS011;41776;48.260;8.928;2022-08-05T04:10:09;3.50;;;2.25;;
1725;SDS011;41776;48.260;8.928;2022-08-05T04:12:36;3.58;;;2.30;;
1725;SDS011;41776;48.260;8.928;2022-08-05T04:15:03;3.65;;;2.45;;
1725;SDS011;41776;48.260;8.928;2022-08-05T04:17:31;3.85;;;2.20;;
1725;SDS011;41776;48.260;8.928;2022-08-05T04:19:58;5.57;;;2.40;;
1725;SDS011;41776;48.260;8.928;2022-08-05T04:22:25;5.57;;;2.30;;
1725;SDS011;41776;48.260;8.928;2022-08-05T04:24:51;6.25;;;2.40;;
1725;SDS011;41776;48.260;8.928;2022-08-05T04:27:18;4.25;;;2.13;;
1725;SDS011;41776;48.260;8.928;2022-08-05T04:29:44;3.33;;;2.45;;
1725;SDS011;41776;48.260;8.928;2022-08-05T04:32:11;4.70;;;2.40;;
1725;SDS011;41776;48.260;8.928;2022-08-05T04:34:38;3.58;;;2.25;;
1725;SDS011;41776;48.260;8.928;2022-08-05T04:37:05;3.58;;;2.25;;
1725;SDS011;41776;48.260;8.928;2022-08-05T04:39:31;5.38;;;2.28;;
1725;SDS011;41776;48.260;8.928;2022-08-05T04:41:58;7.20;;;2.25;;
1725;SDS011;41776;48.260;8.928;2022-08-05T04:44:24;4.65;;;2.40;;
1725;SDS011;41776;48.260;8.928;2022-08-05T04:46:51;4.28;;;2.92;;
1725;SDS011;41776;48.260;8.928;2022-08-05T04:49:17;3.60;;;2.58;;
1725;SDS011;41776;48.260;8.928;2022-08-05T04:51:45;4.20;;;2.33;;
1725;SDS011;41776;48.260;8.928;2022-08-05T04:54:11;5.03;;;2.28;;
1725;SDS011;41776;48.260;8.928;2022-08-05T04:56:39;3.65;;;2.30;;
1725;SDS011;41776;48.260;8.928;2022-08-05T04:59:05;4.97;;;2.55;;
1725;SDS011;41776;48.260;8.928;2022-08-05T05:01:32;4.05;;;2.35;;
1725;SDS011;41776;48.260;8.928;2022-08-05T05:03:58;8.18;;;2.65;;
1725;SDS011;41776;48.260;8.928;2022-08-05T05:06:25;6.28;;;2.42;;
1725;SDS011;41776;48.260;8.928;2022-08-05T05:08:52;4.03;;;2.28;;
1725;SDS011;41776;48.260;8.928;2022-08-05T05:11:19;3.53;;;2.17;;
1725;SDS011;41776;48.260;8.928;2022-08-05T05:13:46;2.45;;;2.22;;
1725;SDS011;41776;48.260;8.928;2022-08-05T05:16:12;3.75;;;2.33;;
1725;SDS011;41776;48.260;8.928;2022-08-05T05:18:40;2.33;;;2.13;;
1725;SDS011;41776;48.260;8.928;2022-08-05T05:21:07;4.90;;;2.40;;
1725;SDS011;41776;48.260;8.928;2022-08-05T05:23:34;3.03;;;2.28;;
1725;SDS011;41776;48.260;8.928;2022-08-05T05:26:01;2.70;;;2.20;;
1725;SDS011;41776;48.260;8.928;2022-08-05T05:28:28;4.38;;;2.53;;
1725;SDS011;41776;48.260;8.928;2022-08-05T05:30:54;7.72;;;2.80;;
1725;SDS011;41776;48.260;8.928;2022-08-05T05:33:21;3.17;;;2.45;;
1725;SDS011;41776;48.260;8.928;2022-08-05T05:35:47;3.83;;;2.25;;
1725;SDS011;41776;48.260;8.928;2022-08-05T05:38:14;8.77;;;2.50;;
1725;SDS011;41776;48.260;8.928;2022-08-05T05:40:41;7.05;;;2.42;;
1725;SDS011;41776;48.260;8.928;2022-08-05T05:43:09;9.60;;;2.50;;
1725;SDS011;41776;48.260;8.928;2022-08-05T05:45:35;4.72;;;2.40;;
1725;SDS011;41776;48.260;8.928;2022-08-05T05:48:02;3.88;;;2.92;;
1725;SDS011;41776;48.260;8.928;2022-08-05T05:50:31;5.38;;;2.33;;
1725;SDS011;41776;48.260;8.928;2022-08-05T05:52:58;7.18;;;2.80;;
1725;SDS011;41776;48.260;8.928;2022-08-05T05:55:24;3.90;;;2.17;;
1725;SDS011;41776;48.260;8.928;2022-08-05T05:57:51;3.10;;;2.20;;
1725;SDS011;41776;48.260;8.928;2022-08-05T06:00:19;6.18;;;2.67;;
1725;SDS011;41776;48.260;8.928;2022-08-05T06:02:46;5.40;;;2.30;;
1725;SDS011;41776;48.260;8.928;2022-08-05T06:05:14;9.30;;;2.70;;
1725;SDS011;41776;48.260;8.928;2022-08-05T06:07:42;6.43;;;3.10;;
1725;SDS011;41776;48.260;8.928;2022-08-05T06:10:09;7.75;;;2.90;;
1725;SDS011;41776;48.260;8.928;2022-08-05T06:12:36;11.10;;;2.70;;
1725;SDS011;41776;48.260;8.928;2022-08-05T06:15:04;7.10;;;2.70;;
1725;SDS011;41776;48.260;8.928;2022-08-05T06:17:33;8.57;;;2.75;;
1725;SDS011;41776;48.260;8.928;2022-08-05T06:20:00;4.72;;;2.42;;
1725;SDS011;41776;48.260;8.928;2022-08-05T06:22:27;5.65;;;2.60;;
1725;SDS011;41776;48.260;8.928;2022-08-05T06:24:54;5.68;;;2.28;;
1725;SDS011;41776;48.260;8.928;2022-08-05T06:27:21;4.65;;;2.42;;
1725;SDS011;41776;48.260;8.928;2022-08-05T06:29:48;6.28;;;2.33;;
1725;SDS011;41776;48.260;8.928;2022-08-05T06:32:14;6.20;;;2.70;;
1725;SDS011;41776;48.260;8.928;2022-08-05T06:34:42;5.40;;;2.80;;
1725;SDS011;41776;48.260;8.928;2022-08-05T06:37:09;3.78;;;2.30;;
1725;SDS011;41776;48.260;8.928;2022-08-05T06:39:35;10.85;;;2.47;;
1725;SDS011;41776;48.260;8.928;2022-08-05T06:42:03;6.43;;;2.22;;
1725;SDS011;41776;48.260;8.928;2022-08-05T06:44:30;7.40;;;2.75;;
1725;SDS011;41776;48.260;8.928;2022-08-05T06:46:57;4.72;;;2.42;;
1725;SDS011;41776;48.260;8.928;2022-08-05T06:49:24;14.15;;;3.22;;
1725;SDS011;41776;48.260;8.928;2022-08-05T06:51:51;4.88;;;2.40;;
1725;SDS011;41776;48.260;8.928;2022-08-05T06:54:18;5.60;;;2.47;;
1725;SDS011;41776;48.260;8.928;2022-08-05T06:56:44;5.05;;;2.67;;
1725;SDS011;41776;48.260;8.928;2022-08-05T06:59:11;11.38;;;2.75;;
1725;SDS011;41776;48.260;8.928;2022-08-05T07:01:38;6.70;;;2.70;;
1725;SDS011;41776;48.260;8.928;2022-08-05T07:04:05;5.78;;;2.55;;
1725;SDS011;41776;48.260;8.928;2022-08-05T07:06:31;7.22;;;2.80;;
1725;SDS011;41776;48.260;8.928;2022-08-05T07:08:59;6.32;;;2.50;;
1725;SDS011;41776;48.260;8.928;2022-08-05T07:11:26;6.70;;;2.83;;
1725;SDS011;41776;48.260;8.928;2022-08-05T07:13:55;5.50;;;2.70;;
1725;SDS011;41776;48.260;8.928;2022-08-05T07:19:57;6.25;;;2.22;;
1725;SDS011;41776;48.260;8.928;2022-08-05T07:22:24;6.45;;;2.55;;
1725;SDS011;41776;48.260;8.928;2022-08-05T07:24:53;3.88;;;2.35;;
1725;SDS011;41776;48.260;8.928;2022-08-05T07:27:19;6.80;;;2.90;;
1725;SDS011;41776;48.260;8.928;2022-08-05T07:29:45;3.85;;;2.30;;
1725;SDS011;41776;48.260;8.928;2022-08-05T07:32:12;3.85;;;2.10;;
1725;SDS011;41776;48.260;8.928;2022-08-05T07:34:38;8.85;;;2.22;;
1725;SDS011;41776;48.260;8.928;2022-08-05T07:37:05;5.95;;;2.15;;
1725;SDS011;41776;48.260;8.928;2022-08-05T07:39:31;6.97;;;2.17;;
1725;SDS011;41776;48.260;8.928;2022-08-05T07:41:59;5.63;;;2.17;;
1725;SDS011;41776;48.260;8.928;2022-08-05T07:44:26;4.93;;;2.05;;
1725;SDS011;41776;48.260;8.928;2022-08-05T07:46:52;4.63;;;1.55;;
1725;SDS011;41776;48.260;8.928;2022-08-05T07:49:18;5.93;;;1.98;;
1725;SDS011;41776;48.260;8.928;2022-08-05T07:51:45;6.22;;;2.05;;
1725;SDS011;41776;48.260;8.928;2022-08-05T07:54:12;5.07;;;2.15;;
1725;SDS011;41776;48.260;8.928;2022-08-05T07:56:38;5.05;;;1.90;;
1725;SDS011;41776;48.260;8.928;2022-08-05T07:59:06;8.43;;;2.17;;
1725;SDS011;41776;48.260;8.928;2022-08-05T08:01:32;10.52;;;2.00;;
1725;SDS011;41776;48.260;8.928;2022-08-05T08:03:59;4.03;;;1.85;;
1725;SDS011;41776;48.260;8.928;2022-08-05T08:06:25;4.45;;;1.75;;
1725;SDS011;41776;48.260;8.928;2022-08-05T08:08:52;3.08;;;1.90;;
1725;SDS011;41776;48.260;8.928;2022-08-05T08:11:18;5.72;;;1.42;;
1725;SDS011;41776;48.260;8.928;2022-08-05T08:13:45;8.88;;;2.05;;
1725;SDS011;41776;48.260;8.928;2022-08-05T08:16:12;7.50;;;2.22;;
1725;SDS011;41776;48.260;8.928;2022-08-05T08:18:39;3.45;;;1.58;;
1725;SDS011;41776;48.260;8.928;2022-08-05T08:21:05;6.43;;;1.55;;
1725;SDS011;41776;48.260;8.928;2022-08-05T08:23:32;3.15;;;1.35;;
1725;SDS011;41776;48.260;8.928;2022-08-05T08:25:59;4.90;;;2.05;;
1725;SDS011;41776;48.260;8.928;2022-08-05T08:28:25;3.47;;;1.80;;
1725;SDS011;41776;48.260;8.928;2022-08-05T08:30:52;4.70;;;2.13;;
1725;SDS011;41776;48.260;8.928;2022-08-05T08:33:20;4.20;;;1.60;;
1725;SDS011;41776;48.260;8.928;2022-08-05T08:35:46;1.75;;;1.55;;
1725;SDS011;41776;48.260;8.928;2022-08-05T08:38:13;3.85;;;1.77;;
1725;SDS011;41776;48.260;8.928;2022-08-05T08:40:40;4.28;;;1.60;;
1725;SDS011;41776;48.260;8.928;2022-08-05T08:43:08;2.78;;;1.70;;
1725;SDS011;41776;48.260;8.928;2022-08-05T08:45:37;2.53;;;1.60;;
1725;SDS011;41776;48.260;8.928;2022-08-05T08:48:04;3.15;;;1.30;;
1725;SDS011;41776;48.260;8.928;2022-08-05T08:50:32;2.25;;;1.50;;
1725;SDS011;41776;48.260;8.928;2022-08-05T08:53:02;3.20;;;1.58;;
1725;SDS011;41776;48.260;8.928;2022-08-05T08:55:31;4.53;;;1.40;;
1725;SDS011;41776;48.260;8.928;2022-08-05T08:57:59;3.78;;;1.45;;
1725;SDS011;41776;48.260;8.928;2022-08-05T09:00:25;2.47;;;1.60;;
1725;SDS011;41776;48.260;8.928;2022-08-05T09:02:52;4.47;;;1.50;;
1725;SDS011;41776;48.260;8.928;2022-08-05T09:05:19;3.25;;;1.58;;
1725;SDS011;41776;48.260;8.928;2022-08-05T09:07:47;2.92;;;1.50;;
1725;SDS011;41776;48.260;8.928;2022-08-05T09:10:15;1.75;;;1.30;;
1725;SDS011;41776;48.260;8.928;2022-08-05T09:12:42;2.13;;;1.30;;
1725;SDS011;41776;48.260;8.928;2022-08-05T09:15:09;1.88;;;1.20;;
1725;SDS011;41776;48.260;8.928;2022-08-05T09:17:36;3.47;;;1.30;;
1725;SDS011;41776;48.260;8.928;2022-08-05T09:20:03;6.90;;;1.67;;
1725;SDS011;41776;48.260;8.928;2022-08-05T09:22:38;2.40;;;1.50;;
1725;SDS011;41776;48.260;8.928;2022-08-05T09:25:35;1.20;;;1.10;;
1725;SDS011;41776;48.260;8.928;2022-08-05T09:28:10;2.47;;;1.50;;
1725;SDS011;41776;48.260;8.928;2022-08-05T09:30:41;1.90;;;1.17;;
1725;SDS011;41776;48.260;8.928;2022-08-05T09:33:08;1.80;;;1.10;;
1725;SDS011;41776;48.260;8.928;2022-08-05T09:35:35;3.00;;;1.38;;
1725;SDS011;41776;48.260;8.928;2022-08-05T09:38:01;2.22;;;1.25;;
1725;SDS011;41776;48.260;8.928;2022-08-05T09:40:33;1.83;;;1.45;;
1725;SDS011;41776;48.260;8.928;2022-08-05T09:43:02;2.60;;;1.30;;
1725;SDS011;41776;48.260;8.928;2022-08-05T09:45:34;3.63;;;1.38;;
1725;SDS011;41776;48.260;8.928;2022-08-05T09:48:17;2.40;;;1.65;;
1725;SDS011;41776;48.260;8.928;2022-08-05T09:50:47;2.35;;;1.33;;
1725;SDS011;41776;48.260;8.928;2022-08-05T09:53:16;1.77;;;1.13;;
1725;SDS011;41776;48.260;8.928;2022-08-05T09:55:43;1.67;;;1.15;;
1725;SDS011;41776;48.260;8.928;2022-08-05T09:58:09;3.88;;;1.48;;
1725;SDS011;41776;48.260;8.928;2022-08-05T10:00:37;3.35;;;1.13;;
1725;SDS011;41776;48.260;8.928;2022-08-05T10:03:07;2.22;;;1.23;;
1725;SDS011;41776;48.260;8.928;2022-08-05T10:05:35;1.85;;;1.25;;
1725;SDS011;41776;48.260;8.928;2022-08-05T10:08:03;2.88;;;1.30;;
1725;SDS011;41776;48.260;8.928;2022-08-05T10:10:38;1.77;;;1.30;;
1725;SDS011;41776;48.260;8.928;2022-08-05T10:13:12;3.63;;;1.10;;
1725;SDS011;41776;48.260;8.928;2022-08-05T10:15:51;6.43;;;1.50;;
1725;SDS011;41776;48.260;8.928;2022-08-05T10:18:19;5.78;;;1.27;;
1725;SDS011;41776;48.260;8.928;2022-08-05T10:20:48;3.85;;;1.33;;
1725;SDS011;41776;48.260;8.928;2022-08-05T10:23:16;2.33;;;1.60;;
1725;SDS011;41776;48.260;8.928;2022-08-05T10:25:46;1.58;;;1.25;;
1725;SDS011;41776;48.260;8.928;2022-08-05T10:28:13;3.17;;;1.58;;
1725;SDS011;41776;48.260;8.928;2022-08-05T10:30:40;2.47;;;1.50;;
1725;SDS011;41776;48.260;8.928;2022-08-05T10:33:07;2.53;;;1.55;;
1725;SDS011;41776;48.260;8.928;2022-08-05T10:35:34;1.90;;;1.30;;
1725;SDS011;41776;48.260;8.928;2022-08-05T10:38:01;1.55;;;1.30;;
1725;SDS011;41776;48.260;8.928;2022-08-05T10:40:30;1.85;;;1.33;;
1725;SDS011;41776;48.260;8.928;2022-08-05T10:43:05;3.10;;;1.40;;
1725;SDS011;41776;48.260;8.928;2022-08-05T10:45:36;1.45;;;1.30;;
1725;SDS011;41776;48.260;8.928;2022-08-05T10:50:57;3.65;;;1.58;;
1725;SDS011;41776;48.260;8.928;2022-08-05T10:53:31;3.75;;;1.95;;
1725;SDS011;41776;48.260;8.928;2022-08-05T10:56:02;2.15;;;1.63;;
1725;SDS011;41776;48.260;8.928;2022-08-05T10:58:32;4.47;;;1.85;;
1725;SDS011;41776;48.260;8.928;2022-08-05T11:00:59;3.10;;;1.83;;
1725;SDS011;41776;48.260;8.928;2022-08-05T11:03:30;3.30;;;1.70;;
1725;SDS011;41776;48.260;8.928;2022-08-05T11:06:07;2.83;;;1.70;;
1725;SDS011;41776;48.260;8.928;2022-08-05T11:08:35;4.43;;;1.63;;
1725;SDS011;41776;48.260;8.928;2022-08-05T11:14:01;2.90;;;2.08;;
1725;SDS011;41776;48.260;8.928;2022-08-05T11:16:28;4.10;;;1.58;;
1725;SDS011;41776;48.260;8.928;2022-08-05T11:21:51;4.55;;;1.85;;
1725;SDS011;41776;48.260;8.928;2022-08-05T11:24:18;3.13;;;1.80;;
1725;SDS011;41776;48.260;8.928;2022-08-05T11:26:45;4.88;;;2.00;;
1725;SDS011;41776;48.260;8.928;2022-08-05T11:34:51;3.10;;;1.77;;
1725;SDS011;41776;48.260;8.928;2022-08-05T11:43:22;4.75;;;1.80;;
1725;SDS011;41776;48.260;8.928;2022-08-05T11:45:49;5.63;;;2.15;;
1725;SDS011;41776;48.260;8.928;2022-08-05T11:48:16;2.78;;;1.90;;
1725;SDS011;41776;48.260;8.928;2022-08-05T11:50:46;8.00;;;2.05;;
1725;SDS011;41776;48.260;8.928;2022-08-05T11:53:22;2.67;;;1.75;;
1725;SDS011;41776;48.260;8.928;2022-08-05T11:55:54;8.55;;;2.22;;
1725;SDS011;41776;48.260;8.928;2022-08-05T11:58:26;7.03;;;2.22;;
1725;SDS011;41776;48.260;8.928;2022-08-05T12:01:02;3.40;;;1.95;;
1725;SDS011;41776;48.260;8.928;2022-08-05T12:03:38;1.70;;;1.42;;
1725;SDS011;41776;48.260;8.928;2022-08-05T12:06:06;6.85;;;2.10;;
1725;SDS011;41776;48.260;8.928;2022-08-05T12:08:38;4.93;;;1.95;;
1725;SDS011;41776;48.260;8.928;2022-08-05T12:11:05;2.15;;;1.65;;
1725;SDS011;41776;48.260;8.928;2022-08-05T12:13:34;2.38;;;1.58;;
1725;SDS011;41776;48.260;8.928;2022-08-05T12:16:03;4.20;;;2.10;;
1725;SDS011;41776;48.260;8.928;2022-08-05T12:18:31;4.53;;;2.05;;
1725;SDS011;41776;48.260;8.928;2022-08-05T12:21:08;2.60;;;1.60;;
1725;SDS011;41776;48.260;8.928;2022-08-05T12:23:39;4.78;;;1.88;;
1725;SDS011;41776;48.260;8.928;2022-08-05T12:26:05;5.50;;;1.88;;
1725;SDS011;41776;48.260;8.928;2022-08-05T12:28:32;2.92;;;1.70;;
1725;SDS011;41776;48.260;8.928;2022-08-05T12:31:00;2.47;;;1.90;;
1725;SDS011;41776;48.260;8.928;2022-08-05T12:33:28;2.50;;;1.80;;
1725;SDS011;41776;48.260;8.928;2022-08-05T12:35:55;3.58;;;2.00;;
1725;SDS011;41776;48.260;8.928;2022-08-05T12:38:22;3.92;;;1.88;;
1725;SDS011;41776;48.260;8.928;2022-08-05T12:40:49;2.92;;;1.90;;
1725;SDS011;41776;48.260;8.928;2022-08-05T12:43:17;2.55;;;1.73;;
1725;SDS011;41776;48.260;8.928;2022-08-05T12:45:50;2.47;;;2.00;;
1725;SDS011;41776;48.260;8.928;2022-08-05T12:48:17;5.50;;;2.25;;
1725;SDS011;41776;48.260;8.928;2022-08-05T12:53:39;3.63;;;2.00;;
1725;SDS011;41776;48.260;8.928;2022-08-05T12:56:17;5.65;;;2.20;;
1725;SDS011;41776;48.260;8.928;2022-08-05T13:01:37;3.42;;;2.10;;
1725;SDS011;41776;48.260;8.928;2022-08-05T13:04:04;5.18;;;2.15;;
1725;SDS011;41776;48.260;8.928;2022-08-05T13:06:37;3.22;;;2.03;;
1725;SDS011;41776;48.260;8.928;2022-08-05T13:09:08;6.03;;;2.00;;
1725;SDS011;41776;48.260;8.928;2022-08-05T13:11:37;2.10;;;1.70;;
1725;SDS011;41776;48.260;8.928;2022-08-05T13:14:09;3.72;;;1.80;;
1725;SDS011;41776;48.260;8.928;2022-08-05T13:16:46;6.57;;;1.88;;
1725;SDS011;41776;48.260;8.928;2022-08-05T13:19:19;3.58;;;2.15;;
1725;SDS011;41776;48.260;8.928;2022-08-05T13:21:48;4.30;;;2.10;;
1725;SDS011;41776;48.260;8.928;2022-08-05T13:24:15;5.80;;;2.28;;
1725;SDS011;41776;48.260;8.928;2022-08-05T13:26:43;4.95;;;1.80;;
1725;SDS011;41776;48.260;8.928;2022-08-05T13:29:10;2.72;;;1.65;;
1725;SDS011;41776;48.260;8.928;2022-08-05T13:31:40;4.38;;;1.77;;
1725;SDS011;41776;48.260;8.928;2022-08-05T13:34:07;4.47;;;1.67;;
1725;SDS011;41776;48.260;8.928;2022-08-05T13:36:34;2.28;;;1.65;;
1725;SDS011;41776;48.260;8.928;2022-08-05T13:39:03;5.35;;;2.35;;
1725;SDS011;41776;48.260;8.928;2022-08-05T13:41:30;3.75;;;1.88;;
1725;SDS011;41776;48.260;8.928;2022-08-05T13:43:57;2.65;;;1.90;;
1725;SDS011;41776;48.260;8.928;2022-08-05T13:46:23;3.60;;;1.73;;
1725;SDS011;41776;48.260;8.928;2022-08-05T13:48:51;3.53;;;1.90;;
1725;SDS011;41776;48.260;8.928;2022-08-05T13:51:24;2.90;;;2.13;;
1725;SDS011;41776;48.260;8.928;2022-08-05T13:53:53;3.70;;;1.80;;
1725;SDS011;41776;48.260;8.928;2022-08-05T13:56:21;4.82;;;2.03;;
1725;SDS011;41776;48.260;8.928;2022-08-05T13:58:47;2.80;;;1.92;;
1725;SDS011;41776;48.260;8.928;2022-08-05T14:01:14;3.90;;;2.00;;
1725;SDS011;41776;48.260;8.928;2022-08-05T14:03:40;3.42;;;1.90;;
1725;SDS011;41776;48.260;8.928;2022-08-05T14:06:07;4.20;;;2.10;;
1725;SDS011;41776;48.260;8.928;2022-08-05T14:08:32;3.75;;;2.10;;
1725;SDS011;41776;48.260;8.928;2022-08-05T14:10:59;2.55;;;2.08;;
1725;SDS011;41776;48.260;8.928;2022-08-05T14:13:26;2.60;;;2.08;;
1725;SDS011;41776;48.260;8.928;2022-08-05T14:15:55;2.78;;;2.10;;
1725;SDS011;41776;48.260;8.928;2022-08-05T14:18:22;4.00;;;1.90;;
1725;SDS011;41776;48.260;8.928;2022-08-05T14:20:49;7.80;;;2.00;;
1725;SDS011;41776;48.260;8.928;2022-08-05T14:23:15;3.55;;;1.92;;
1725;SDS011;41776;48.260;8.928;2022-08-05T14:25:42;4.63;;;1.83;;
1725;SDS011;41776;48.260;8.928;2022-08-05T14:28:08;3.55;;;2.08;;
1725;SDS011;41776;48.260;8.928;2022-08-05T14:30:36;4.65;;;1.95;;
1725;SDS011;41776;48.260;8.928;2022-08-05T14:33:02;2.35;;;1.80;;
1725;SDS011;41776;48.260;8.928;2022-08-05T14:35:29;2.92;;;1.80;;
1725;SDS011;41776;48.260;8.928;2022-08-05T14:37:55;2.22;;;1.48;;
1725;SDS011;41776;48.260;8.928;2022-08-05T14:40:22;5.57;;;1.63;;
1725;SDS011;41776;48.260;8.928;2022-08-05T14:42:48;5.00;;;2.05;;
1725;SDS011;41776;48.260;8.928;2022-08-05T14:45:15;3.10;;;1.63;;
1725;SDS011;41776;48.260;8.928;2022-08-05T14:47:42;5.07;;;1.92;;
1725;SDS011;41776;48.260;8.928;2022-08-05T14:50:09;3.65;;;1.70;;
1725;SDS011;41776;48.260;8.928;2022-08-05T14:52:35;3.22;;;1.90;;
1725;SDS011;41776;48.260;8.928;2022-08-05T14:55:02;7.22;;;2.42;;
1725;SDS011;41776;48.260;8.928;2022-08-05T14:57:30;3.70;;;1.67;;
1725;SDS011;41776;48.260;8.928;2022-08-05T14:59:56;2.55;;;1.80;;
1725;SDS011;41776;48.260;8.928;2022-08-05T15:02:23;4.35;;;2.30;;
1725;SDS011;41776;48.260;8.928;2022-08-05T15:04:50;7.68;;;2.33;;
1725;SDS011;41776;48.260;8.928;2022-08-05T15:07:17;4.65;;;2.10;;
1725;SDS011;41776;48.260;8.928;2022-08-05T15:09:43;5.28;;;2.20;;
1725;SDS011;41776;48.260;8.928;2022-08-05T15:12:10;4.03;;;2.17;;
1725;SDS011;41776;48.260;8.928;2022-08-05T15:14:36;5.05;;;1.92;;
1725;SDS011;41776;48.260;8.928;2022-08-05T15:17:03;3.63;;;2.13;;
1725;SDS011;41776;48.260;8.928;2022-08-05T15:19:30;3.13;;;2.08;;
1725;SDS011;41776;48.260;8.928;2022-08-05T15:21:59;5.60;;;1.83;;
1725;SDS011;41776;48.260;8.928;2022-08-05T15:24:25;5.30;;;2.33;;
1725;SDS011;41776;48.260;8.928;2022-08-05T15:26:52;5.75;;;1.77;;
1725;SDS011;41776;48.260;8.928;2022-08-05T15:29:18;3.25;;;2.10;;
1725;SDS011;41776;48.260;8.928;2022-08-05T15:31:45;4.40;;;2.00;;
1725;SDS011;41776;48.260;8.928;2022-08-05T15:34:12;3.75;;;1.90;;
1725;SDS011;41776;48.260;8.928;2022-08-05T15:36:39;4.15;;;1.85;;
1725;SDS011;41776;48.260;8.928;2022-08-05T15:39:07;4.50;;;2.20;;